Time;durP1;ratioP1;P1;durP2;ratioP2;P2;SDS_P1;SDS_P2;PMS_P1;PMS_P2;Temp;Humidity;BMP_temperature;BMP_pressure;BME280_temperature;BME280_humidity;BME280_pressure;Samples;Min_cycle;Max_cycle;Signal;HPM_P1;HPM_P2
2021/05/23 00:00:16;;;;;;;1.00;0.80;;;;;;;7.16;100.00;93473.56;5075703;28;20203;-80
2021/05/23 00:02:43;;;;;;;1.83;0.90;;;;;;;7.21;100.00;93471.19;5074694;28;20207;-80
2021/05/23 00:05:14;;;;;;;2.20;1.00;;;;;;;7.19;100.00;93475.78;5075297;28;20653;-80
2021/05/23 00:07:48;;;;;;;3.57;0.90;;;;;;;7.19;100.00;93473.19;5075212;28;20210;-81
2021/05/23 00:10:15;;;;;;;2.20;0.80;;;;;;;7.18;100.00;93469.00;5075439;28;20199;-79
2021/05/23 00:12:42;;;;;;;2.77;0.90;;;;;;;7.17;100.00;93483.75;5075288;28;20233;-80
2021/05/23 00:15:10;;;;;;;2.07;0.90;;;;;;;7.19;100.00;93473.19;5075273;28;20251;-79
2021/05/23 00:17:36;;;;;;;1.77;0.90;;;;;;;7.20;100.00;93475.59;5075022;28;20226;-80
2021/05/23 00:20:03;;;;;;;2.07;1.00;;;;;;;7.19;100.00;93476.59;5074876;28;20199;-80
2021/05/23 00:22:29;;;;;;;1.70;0.87;;;;;;;7.15;100.00;93479.75;5074696;28;20234;-80
2021/05/23 00:24:55;;;;;;;1.40;1.07;;;;;;;7.18;100.00;93479.38;5075038;28;20238;-79
2021/05/23 00:27:21;;;;;;;2.73;1.10;;;;;;;7.19;100.00;93474.00;5074975;28;20545;-81
2021/05/23 00:29:47;;;;;;;1.57;0.80;;;;;;;7.21;100.00;93472.03;5074208;28;20231;-80
2021/05/23 00:32:13;;;;;;;1.57;0.90;;;;;;;7.19;100.00;93481.78;5074405;28;20941;-80
2021/05/23 00:34:40;;;;;;;2.00;0.90;;;;;;;7.24;100.00;93483.81;5074790;28;20213;-79
2021/05/23 00:37:08;;;;;;;1.00;0.60;;;;;;;7.20;100.00;93477.41;5074589;28;20206;-79
2021/05/23 00:39:34;;;;;;;2.70;0.67;;;;;;;7.20;100.00;93474.81;5074792;28;20234;-79
2021/05/23 00:42:00;;;;;;;1.00;0.80;;;;;;;7.24;100.00;93478.63;5074714;28;20226;-80
2021/05/23 00:44:29;;;;;;;3.17;0.90;;;;;;;7.11;100.00;93484.53;5074129;28;20291;-78
2021/05/23 00:46:55;;;;;;;1.97;1.00;;;;;;;7.00;100.00;93490.19;5074494;28;20289;-78
2021/05/23 00:49:23;;;;;;;1.00;0.90;;;;;;;7.01;100.00;93495.22;5074301;28;20202;-78
2021/05/23 00:51:51;;;;;;;2.70;0.70;;;;;;;7.03;100.00;93501.00;5074399;28;20281;-78
2021/05/23 00:54:17;;;;;;;0.90;0.83;;;;;;;7.07;100.00;93506.63;5074441;28;20203;-79
2021/05/23 00:56:44;;;;;;;1.10;0.80;;;;;;;7.06;100.00;93510.22;5076822;28;20229;-80
2021/05/23 00:59:12;;;;;;;1.10;0.80;;;;;;;7.00;100.00;93511.75;5074353;28;20233;-80
2021/05/23 01:02:38;;;;;;;1.33;0.80;;;;;;;6.98;100.00;93518.13;5074178;28;20725;-79
2021/05/23 01:05:05;;;;;;;0.80;0.80;;;;;;;7.04;100.00;93513.00;5074295;28;20224;-79
2021/05/23 01:07:31;;;;;;;1.27;0.80;;;;;;;7.10;100.00;93516.66;5074106;28;20199;-79
2021/05/23 01:10:03;;;;;;;0.80;0.80;;;;;;;7.16;100.00;93515.09;5074066;28;20203;-79
2021/05/23 01:13:04;;;;;;;1.87;0.70;;;;;;;7.13;100.00;93518.09;5073952;28;20199;-78
2021/05/23 01:15:33;;;;;;;1.67;0.60;;;;;;;7.13;100.00;93528.47;5072852;28;20604;-79
2021/05/23 01:18:08;;;;;;;1.20;0.70;;;;;;;7.11;100.00;93526.06;5073894;28;20223;-78
2021/05/23 01:20:49;;;;;;;0.53;0.53;;;;;;;7.10;100.00;93521.84;5073733;28;20199;-79
2021/05/23 01:23:31;;;;;;;0.70;0.70;;;;;;;7.12;100.00;93519.06;5073617;28;20230;-79
2021/05/23 01:26:06;;;;;;;0.93;0.70;;;;;;;7.17;100.00;93514.91;5071812;28;20206;-78
2021/05/23 01:28:37;;;;;;;2.80;0.80;;;;;;;7.17;100.00;93516.72;5073759;28;20206;-79
2021/05/23 01:31:07;;;;;;;0.77;0.70;;;;;;;7.19;100.00;93514.72;5073520;28;20209;-79
2021/05/23 01:33:34;;;;;;;0.60;0.57;;;;;;;7.17;100.00;93512.31;5073541;28;20208;-79
2021/05/23 01:36:00;;;;;;;1.13;0.80;;;;;;;7.19;100.00;93509.53;5073683;28;20198;-79
2021/05/23 01:38:28;;;;;;;0.60;0.60;;;;;;;7.21;100.00;93510.13;5073427;28;20634;-80
2021/05/23 01:40:58;;;;;;;2.33;0.90;;;;;;;7.19;100.00;93510.34;5073611;28;20207;-79
2021/05/23 01:43:25;;;;;;;0.90;0.60;;;;;;;7.20;100.00;93505.97;5073296;28;20226;-81
2021/05/23 01:46:00;;;;;;;0.73;0.70;;;;;;;7.18;100.00;93506.13;5073620;28;20241;-81
2021/05/23 01:48:26;;;;;;;1.03;0.77;;;;;;;7.03;100.00;93516.59;5073534;28;20210;-80
2021/05/23 01:50:53;;;;;;;0.93;0.70;;;;;;;6.99;100.00;93509.34;5073289;28;20657;-80
2021/05/23 01:53:19;;;;;;;1.03;0.83;;;;;;;6.99;100.00;93509.34;5073319;28;20203;-81
2021/05/23 01:55:47;;;;;;;2.70;0.77;;;;;;;6.97;100.00;93506.13;5073399;28;20214;-81
2021/05/23 01:58:13;;;;;;;0.97;0.80;;;;;;;6.93;100.00;93510.06;5073109;28;20222;-79
2021/05/23 02:00:45;;;;;;;0.80;0.80;;;;;;;6.98;100.00;93513.75;5073358;28;20202;-81
2021/05/23 02:03:13;;;;;;;1.80;1.00;;;;;;;7.02;100.00;93519.38;5056194;28;20220;-79
2021/05/23 02:05:42;;;;;;;3.03;0.90;;;;;;;7.06;100.00;93527.56;5073176;28;20581;-80
2021/05/23 02:08:08;;;;;;;0.97;0.80;;;;;;;7.06;100.00;93525.81;5073141;28;20217;-80
2021/05/23 02:10:37;;;;;;;0.77;0.60;;;;;;;7.05;100.00;93531.97;5072944;28;20203;-80
2021/05/23 02:13:05;;;;;;;4.07;0.70;;;;;;;7.08;100.00;93543.75;5073170;28;20224;-79
2021/05/23 02:15:32;;;;;;;0.50;0.50;;;;;;;7.04;100.00;93543.34;5073105;28;20195;-79
2021/05/23 02:17:59;;;;;;;1.13;0.80;;;;;;;7.08;100.00;93541.16;5072885;28;20222;-81
2021/05/23 02:20:30;;;;;;;0.70;0.70;;;;;;;7.04;100.00;93546.75;5072927;28;20610;-80
2021/05/23 02:22:58;;;;;;;1.03;0.77;;;;;;;6.97;100.00;93543.25;5072772;28;20238;-79
2021/05/23 02:25:25;;;;;;;0.60;0.60;;;;;;;6.96;100.00;93546.88;5072407;28;20297;-80
2021/05/23 02:27:54;;;;;;;0.60;0.60;;;;;;;6.96;100.00;93544.28;5073040;28;20203;-81
2021/05/23 02:30:24;;;;;;;1.03;0.80;;;;;;;6.97;100.00;93550.25;5072712;28;20671;-80
2021/05/23 02:32:51;;;;;;;2.63;0.60;;;;;;;6.93;100.00;93555.03;5072819;28;20198;-82
2021/05/23 02:35:22;;;;;;;2.40;0.67;;;;;;;6.91;100.00;93556.16;5072686;28;20206;-81
2021/05/23 02:37:49;;;;;;;1.63;0.63;;;;;;;6.88;100.00;93549.56;5072602;28;20222;-80
2021/05/23 02:40:18;;;;;;;0.70;0.70;;;;;;;6.83;100.00;93563.09;5072937;28;20209;-80
2021/05/23 02:42:45;;;;;;;0.90;0.70;;;;;;;6.81;100.00;93565.06;5072869;28;20203;-80
2021/05/23 02:45:16;;;;;;;0.80;0.80;;;;;;;6.78;100.00;93565.44;5072755;28;20324;-79
2021/05/23 02:47:44;;;;;;;1.87;0.60;;;;;;;6.66;100.00;93567.69;5072655;28;20204;-79
2021/05/23 02:50:12;;;;;;;1.13;0.70;;;;;;;6.64;100.00;93574.84;5072479;28;20298;-79
2021/05/23 02:52:41;;;;;;;1.47;0.77;;;;;;;6.61;100.00;93569.19;5072850;28;20301;-79
2021/05/23 02:55:09;;;;;;;1.07;0.70;;;;;;;6.60;100.00;93578.00;5075324;28;20531;-80
2021/05/23 02:57:36;;;;;;;1.10;0.70;;;;;;;6.58;100.00;93582.56;5072450;28;20206;-78
2021/05/23 03:00:03;;;;;;;0.67;0.60;;;;;;;6.55;100.00;93581.13;5072594;28;20289;-79
2021/05/23 03:02:29;;;;;;;2.87;0.80;;;;;;;6.54;100.00;93582.09;5072490;28;20210;-80
2021/05/23 03:04:55;;;;;;;0.97;0.70;;;;;;;6.49;100.00;93584.41;5072423;28;20203;-79
2021/05/23 03:07:22;;;;;;;1.57;0.70;;;;;;;6.53;100.00;93583.09;5072479;28;20199;-79
2021/05/23 03:09:50;;;;;;;1.70;0.80;;;;;;;6.53;100.00;93583.09;5072424;28;20546;-79
2021/05/23 03:12:16;;;;;;;0.60;0.60;;;;;;;6.50;100.00;93596.41;5072305;28;20600;-79
2021/05/23 03:14:43;;;;;;;1.00;0.70;;;;;;;6.50;100.00;93599.00;5072419;28;20206;-78
2021/05/23 03:17:09;;;;;;;0.70;0.70;;;;;;;6.51;100.00;93589.44;5072407;28;20241;-80
2021/05/23 03:19:36;;;;;;;0.80;0.70;;;;;;;6.46;100.00;93601.16;5072478;28;20235;-78
2021/05/23 03:22:03;;;;;;;0.60;0.60;;;;;;;6.47;100.00;93612.31;5072247;28;20203;-79
2021/05/23 03:24:30;;;;;;;1.17;0.60;;;;;;;6.41;100.00;93616.44;5072328;28;20199;-80
2021/05/23 03:26:57;;;;;;;1.33;0.90;;;;;;;6.44;100.00;93615.28;5072293;28;20260;-78
2021/05/23 03:29:23;;;;;;;1.63;0.83;;;;;;;6.47;100.00;93614.91;5072296;28;20665;-78
2021/05/23 03:31:49;;;;;;;0.83;0.80;;;;;;;6.39;100.00;93620.19;5072198;28;20205;-79
2021/05/23 03:34:15;;;;;;;0.80;0.60;;;;;;;6.36;100.00;93618.78;5072606;28;20610;-79
2021/05/23 03:36:41;;;;;;;2.33;0.80;;;;;;;6.38;100.00;93613.38;5072310;28;20224;-79
2021/05/23 03:39:09;;;;;;;0.80;0.70;;;;;;;6.34;100.00;93618.13;5075025;28;20333;-80
2021/05/23 03:41:35;;;;;;;0.67;0.67;;;;;;;6.36;100.00;93623.13;5075847;28;20199;-79
2021/05/23 03:44:03;;;;;;;0.87;0.83;;;;;;;6.39;100.00;93631.34;5075760;28;20199;-80
2021/05/23 03:46:31;;;;;;;1.60;0.83;;;;;;;6.38;100.00;93626.34;5075538;28;20658;-78
2021/05/23 03:48:57;;;;;;;2.87;0.80;;;;;;;6.37;100.00;93624.75;5075574;28;20207;-79
2021/05/23 03:51:23;;;;;;;0.67;0.60;;;;;;;6.41;100.00;93631.19;5075757;28;20301;-79
2021/05/23 03:53:51;;;;;;;1.03;0.70;;;;;;;6.40;100.00;93635.56;5075600;28;20301;-78
2021/05/23 03:56:17;;;;;;;1.80;0.80;;;;;;;6.48;100.00;93629.50;5075511;28;20206;-78
2021/05/23 03:58:45;;;;;;;0.80;0.80;;;;;;;6.48;100.00;93629.50;5075295;28;20271;-80
2021/05/23 04:01:12;;;;;;;2.70;0.77;;;;;;;6.48;100.00;93637.28;5075438;28;20199;-80
2021/05/23 04:03:38;;;;;;;2.80;0.90;;;;;;;6.54;100.00;93648.72;5075688;28;20199;-80
2021/05/23 04:06:05;;;;;;;2.57;0.80;;;;;;;6.53;100.00;93647.09;5075466;28;20730;-81
2021/05/23 04:08:31;;;;;;;3.90;0.70;;;;;;;6.54;100.00;93649.53;5075277;28;20201;-79
2021/05/23 04:11:00;;;;;;;0.90;0.73;;;;;;;6.53;100.00;93653.13;5075239;28;20551;-80
2021/05/23 04:13:26;;;;;;;1.63;0.83;;;;;;;6.54;100.00;93652.09;5074946;28;20232;-80
2021/05/23 04:15:52;;;;;;;2.70;0.90;;;;;;;6.54;100.00;93651.31;5075004;28;20219;-80
2021/05/23 04:18:19;;;;;;;0.90;0.77;;;;;;;6.57;100.00;93664.72;5075251;28;20226;-80
2021/05/23 04:20:45;;;;;;;0.60;0.60;;;;;;;6.56;100.00;93663.13;5075167;28;20256;-80
2021/05/23 04:23:11;;;;;;;1.23;0.70;;;;;;;6.54;100.00;93664.28;5074905;28;20230;-80
2021/05/23 04:25:38;;;;;;;1.07;0.80;;;;;;;6.57;100.00;93672.50;5075002;28;20299;-81
2021/05/23 04:28:04;;;;;;;3.80;0.80;;;;;;;6.61;100.00;93672.94;5074891;28;20210;-80
2021/05/23 04:30:31;;;;;;;0.60;0.60;;;;;;;6.61;100.00;93678.97;5074841;28;20286;-80
2021/05/23 04:32:57;;;;;;;1.10;0.70;;;;;;;6.69;100.00;93680.66;5074907;28;20210;-80
2021/05/23 04:35:25;;;;;;;2.87;1.00;;;;;;;6.79;100.00;93685.56;5075022;28;20263;-81
2021/05/23 04:37:51;;;;;;;1.90;0.80;;;;;;;6.82;100.00;93686.00;5074696;28;20202;-80
2021/05/23 04:40:18;;;;;;;0.93;0.70;;;;;;;6.84;100.00;93685.84;5074649;28;20206;-81
2021/05/23 04:42:44;;;;;;;1.43;0.90;;;;;;;6.92;100.00;93685.75;5074621;28;20650;-81
2021/05/23 04:45:14;;;;;;;0.80;0.80;;;;;;;6.91;100.00;93671.19;5074218;28;20198;-81
2021/05/23 04:47:40;;;;;;;2.67;0.70;;;;;;;6.99;100.00;93681.44;5074697;28;20202;-80
2021/05/23 04:50:08;;;;;;;1.27;0.57;;;;;;;7.02;100.00;93686.28;5074265;28;20202;-80
2021/05/23 04:52:35;;;;;;;1.47;0.80;;;;;;;7.04;100.00;93691.28;5074576;28;20234;-79
2021/05/23 04:55:03;;;;;;;0.70;0.70;;;;;;;7.14;100.00;93699.59;5074272;28;20203;-79
2021/05/23 04:57:29;;;;;;;1.27;0.77;;;;;;;7.13;100.00;93692.00;5076185;28;20240;-80
2021/05/23 04:59:55;;;;;;;0.80;0.80;;;;;;;7.21;100.00;93689.28;5074056;28;20580;-79
2021/05/23 05:02:21;;;;;;;0.93;0.63;;;;;;;7.17;100.00;93688.84;5074278;28;20272;-80
2021/05/23 05:04:51;;;;;;;1.43;1.00;;;;;;;7.09;100.00;93703.72;5074011;28;20199;-80
2021/05/23 05:07:19;;;;;;;2.97;1.17;;;;;;;7.10;100.00;93697.56;5074073;28;20726;-79
2021/05/23 05:09:46;;;;;;;2.53;1.00;;;;;;;7.14;100.00;93709.19;5073962;28;20199;-80
2021/05/23 05:12:12;;;;;;;3.73;1.00;;;;;;;7.07;100.00;93714.28;5074192;28;20199;-80
2021/05/23 05:14:41;;;;;;;1.83;1.00;;;;;;;7.01;100.00;93721.00;5074061;28;20705;-80
2021/05/23 05:17:07;;;;;;;1.00;0.80;;;;;;;7.08;100.00;93720.28;5073810;28;20230;-80
2021/05/23 05:19:33;;;;;;;0.77;0.77;;;;;;;7.08;100.00;93730.66;5073937;28;20226;-80
2021/05/23 05:21:59;;;;;;;3.33;0.87;;;;;;;7.13;100.00;93731.75;5073376;28;20602;-80
2021/05/23 05:24:25;;;;;;;1.63;0.60;;;;;;;7.21;100.00;93739.44;5073675;28;20210;-81
2021/05/23 05:26:55;;;;;;;3.17;0.83;;;;;;;7.25;100.00;93733.88;5073664;28;20691;-79
2021/05/23 05:29:23;;;;;;;1.33;0.57;;;;;;;7.28;100.00;93749.91;5073939;28;20263;-81
2021/05/23 05:31:49;;;;;;;0.67;0.60;;;;;;;7.29;100.00;93759.28;5073562;28;20290;-79
2021/05/23 05:34:16;;;;;;;1.63;0.70;;;;;;;7.21;100.00;93761.97;5073684;28;20237;-80
2021/05/23 05:36:42;;;;;;;2.07;0.70;;;;;;;7.19;100.00;93775.16;5073465;28;20202;-81
2021/05/23 05:39:08;;;;;;;1.87;1.00;;;;;;;7.00;100.00;93781.69;5073833;28;20619;-80
2021/05/23 05:41:34;;;;;;;1.20;0.60;;;;;;;6.83;100.00;93791.44;5073453;28;20714;-79
2021/05/23 05:44:01;;;;;;;2.07;1.03;;;;;;;6.72;100.00;93791.84;5073420;28;20234;-81
2021/05/23 05:46:27;;;;;;;1.50;0.60;;;;;;;6.66;100.00;93795.13;5073370;28;20206;-80
2021/05/23 05:48:53;;;;;;;1.33;0.60;;;;;;;6.59;100.00;93802.81;5073378;28;20275;-81
2021/05/23 05:51:19;;;;;;;0.80;0.80;;;;;;;6.51;100.00;93821.03;5073293;28;20294;-81
2021/05/23 05:53:45;;;;;;;2.40;0.80;;;;;;;6.17;100.00;93837.00;5073450;28;20237;-81
2021/05/23 05:56:12;;;;;;;0.93;0.60;;;;;;;5.99;100.00;93855.41;5073444;28;20199;-80
2021/05/23 05:58:38;;;;;;;1.70;0.70;;;;;;;5.63;100.00;93850.69;5073269;28;20223;-81
2021/05/23 06:01:05;;;;;;;0.80;0.70;;;;;;;5.39;100.00;93844.63;5073005;28;20199;-81
2021/05/23 06:03:31;;;;;;;5.97;0.57;;;;;;;5.42;100.00;93839.13;5073204;28;20202;-81
2021/05/23 06:05:58;;;;;;;3.23;0.97;;;;;;;5.48;100.00;93829.88;5073154;28;20198;-81
2021/05/23 06:08:24;;;;;;;1.50;0.70;;;;;;;5.60;100.00;93823.34;5073068;28;20213;-80
2021/05/23 06:10:51;;;;;;;0.87;0.60;;;;;;;5.83;100.00;93822.59;5073180;28;20601;-81
2021/05/23 06:13:17;;;;;;;1.17;0.70;;;;;;;6.24;100.00;93812.81;5073196;28;20617;-81
2021/05/23 06:15:43;;;;;;;1.03;0.67;;;;;;;6.58;100.00;93814.19;5073101;28;20199;-81
2021/05/23 06:18:10;;;;;;;0.60;0.60;;;;;;;6.71;100.00;93810.19;5072930;28;20222;-81
2021/05/23 06:20:39;;;;;;;1.00;0.70;;;;;;;6.69;100.00;93825.94;5072827;28;20205;-82
2021/05/23 06:23:05;;;;;;;0.70;0.50;;;;;;;6.84;100.00;93820.75;5072840;28;20325;-82
2021/05/23 06:25:31;;;;;;;0.70;0.60;;;;;;;6.83;100.00;93821.75;5072825;28;20202;-81
2021/05/23 06:27:57;;;;;;;1.13;0.83;;;;;;;7.12;100.00;93820.97;5073578;28;20234;-83
2021/05/23 06:30:25;;;;;;;1.37;0.90;;;;;;;7.44;100.00;93818.22;5073606;28;20205;-81
2021/05/23 06:32:51;;;;;;;0.77;0.63;;;;;;;7.51;100.00;93813.91;5072928;28;20253;-81
2021/05/23 06:35:18;;;;;;;0.50;0.50;;;;;;;7.02;100.00;93818.66;5072627;28;20195;-81
2021/05/23 06:37:45;;;;;;;1.90;0.57;;;;;;;6.77;100.00;93819.88;5072711;28;20203;-81
2021/05/23 06:40:15;;;;;;;1.77;0.60;;;;;;;7.16;100.00;93824.03;5073236;28;20199;-82
2021/05/23 06:42:41;;;;;;;0.50;0.50;;;;;;;7.42;100.00;93815.81;5072801;28;20203;-82
2021/05/23 06:45:07;;;;;;;0.97;0.60;;;;;;;7.97;100.00;93824.06;5072962;28;20267;-81
2021/05/23 06:47:33;;;;;;;1.53;0.50;;;;;;;7.78;100.00;93818.44;5072685;28;20265;-81
2021/05/23 06:50:00;;;;;;;1.13;0.67;;;;;;;7.98;100.00;93815.28;5072737;28;20287;-81
2021/05/23 06:52:26;;;;;;;0.53;0.53;;;;;;;8.38;100.00;93814.88;5072513;28;20207;-81
2021/05/23 06:54:53;;;;;;;0.40;0.40;;;;;;;8.42;100.00;93826.53;5072970;28;20194;-82
2021/05/23 06:57:19;;;;;;;0.70;0.70;;;;;;;8.21;100.00;93835.09;5075021;28;20205;-81
2021/05/23 06:59:46;;;;;;;0.90;0.70;;;;;;;8.55;100.00;93833.69;5072545;28;20624;-82
2021/05/23 07:02:12;;;;;;;1.43;0.50;;;;;;;8.57;100.00;93829.09;5072497;28;20653;-81
2021/05/23 07:04:38;;;;;;;3.07;0.70;;;;;;;8.86;100.00;93830.75;5072687;28;20202;-82
2021/05/23 07:07:04;;;;;;;1.37;0.77;;;;;;;8.88;100.00;93832.16;5073412;28;20542;-82
2021/05/23 07:09:31;;;;;;;1.17;0.70;;;;;;;8.57;100.00;93832.50;5073852;28;20266;-83
2021/05/23 07:11:57;;;;;;;2.80;0.60;;;;;;;8.46;100.00;93848.59;5074301;28;20203;-81
2021/05/23 07:14:23;;;;;;;2.07;0.73;;;;;;;8.58;100.00;93852.31;5076297;28;20199;-82
2021/05/23 07:16:49;;;;;;;1.90;0.70;;;;;;;8.51;100.00;93841.84;5076414;28;20198;-82
2021/05/23 07:19:15;;;;;;;1.73;0.70;;;;;;;8.53;100.00;93849.47;5076368;28;20261;-82
2021/05/23 07:21:41;;;;;;;1.67;1.10;;;;;;;8.39;100.00;93848.50;5076483;28;20198;-82
2021/05/23 07:24:08;;;;;;;0.60;0.60;;;;;;;8.45;100.00;93860.81;5076001;28;20231;-82
2021/05/23 07:26:35;;;;;;;0.60;0.57;;;;;;;8.46;100.00;93849.41;5076209;28;20202;-83
2021/05/23 07:29:01;;;;;;;1.33;0.57;;;;;;;8.29;100.00;93864.44;5076020;28;20226;-82
2021/05/23 07:31:30;;;;;;;1.23;0.70;;;;;;;8.64;100.00;93861.16;5076092;28;20293;-81
2021/05/23 07:33:56;;;;;;;0.63;0.50;;;;;;;8.40;100.00;93859.72;5076135;28;20608;-81
2021/05/23 07:36:22;;;;;;;3.20;0.93;;;;;;;8.31;100.00;93865.03;5075911;28;20626;-83
2021/05/23 07:38:48;;;;;;;0.70;0.50;;;;;;;8.21;100.00;93866.31;5075888;28;20581;-80
2021/05/23 07:41:14;;;;;;;1.70;0.80;;;;;;;8.03;100.00;93869.34;5075915;28;20294;-81
2021/05/23 07:43:41;;;;;;;1.50;0.70;;;;;;;8.01;100.00;93874.72;5076142;28;20205;-81
2021/05/23 07:46:08;;;;;;;2.20;0.80;;;;;;;8.05;100.00;93865.53;5075557;28;20209;-80
2021/05/23 07:48:34;;;;;;;3.20;0.80;;;;;;;8.21;100.00;93871.50;5075772;28;20199;-81
2021/05/23 07:51:00;;;;;;;2.03;1.07;;;;;;;8.57;100.00;93862.91;5075653;28;20203;-81
2021/05/23 07:53:26;;;;;;;2.07;0.77;;;;;;;9.03;100.00;93872.94;5075622;28;20257;-81
2021/05/23 07:55:52;;;;;;;4.07;0.80;;;;;;;9.61;100.00;93873.53;5075530;28;20226;-79
2021/05/23 07:58:19;;;;;;;3.10;1.27;;;;;;;9.67;100.00;93869.34;5075384;28;20588;-77
2021/05/23 08:00:45;;;;;;;1.97;0.70;;;;;;;9.66;100.00;93879.94;5075288;28;20293;-77
2021/05/23 08:03:11;;;;;;;1.57;0.80;;;;;;;10.31;100.00;93872.63;5075488;28;20203;-77
2021/05/23 08:05:37;;;;;;;3.53;1.00;;;;;;;10.59;99.53;93869.94;5075493;28;20202;-78
2021/05/23 08:08:05;;;;;;;2.90;0.80;;;;;;;10.48;96.19;93867.91;5075364;28;20568;-77
2021/05/23 08:10:31;;;;;;;1.63;0.73;;;;;;;10.71;98.12;93865.72;5075461;28;20195;-77
2021/05/23 08:12:57;;;;;;;0.60;0.57;;;;;;;10.20;96.12;93866.16;5074982;28;20240;-78
2021/05/23 08:15:23;;;;;;;2.10;0.53;;;;;;;9.55;96.52;93884.72;5075119;28;20259;-77
2021/05/23 08:17:53;;;;;;;2.70;0.73;;;;;;;9.01;93.80;93887.91;5075330;28;20199;-76
2021/05/23 08:20:20;;;;;;;0.80;0.80;;;;;;;8.90;95.89;93894.44;5075209;28;20280;-77
2021/05/23 08:22:46;;;;;;;2.17;0.80;;;;;;;8.38;99.13;93893.72;5075007;28;20226;-79
2021/05/23 08:25:12;;;;;;;1.33;0.80;;;;;;;8.07;100.00;93892.16;5074433;28;20199;-78
2021/05/23 08:27:39;;;;;;;1.97;0.90;;;;;;;7.87;100.00;93891.13;5074855;28;20681;-79
2021/05/23 08:30:06;;;;;;;2.03;0.80;;;;;;;7.89;100.00;93889.16;5075257;28;20214;-78
2021/05/23 08:32:32;;;;;;;1.40;0.70;;;;;;;7.95;100.00;93889.22;5075047;28;20286;-78
2021/05/23 08:34:59;;;;;;;1.50;0.67;;;;;;;8.27;100.00;93896.78;5074978;28;20202;-79
2021/05/23 08:37:25;;;;;;;0.80;0.73;;;;;;;8.42;100.00;93888.97;5074696;28;20207;-78
2021/05/23 08:39:51;;;;;;;0.63;0.63;;;;;;;8.58;100.00;93885.34;5074651;28;20280;-77
2021/05/23 08:42:20;;;;;;;6.07;0.90;;;;;;;8.85;100.00;93896.81;5074555;28;20199;-77
2021/05/23 08:44:46;;;;;;;1.50;1.00;;;;;;;9.28;100.00;93886.34;5074800;28;20205;-78
2021/05/23 08:47:13;;;;;;;5.37;1.00;;;;;;;9.81;100.00;93893.69;5074715;28;20238;-77
2021/05/23 08:49:40;;;;;;;2.17;0.80;;;;;;;10.63;100.00;93881.56;5074612;28;20280;-77
2021/05/23 08:52:07;;;;;;;1.63;1.00;;;;;;;11.43;100.00;93892.06;5077000;28;20210;-78
2021/05/23 08:54:33;;;;;;;1.40;0.77;;;;;;;11.93;97.18;93893.44;5074500;28;20199;-77
2021/05/23 08:56:59;;;;;;;3.43;0.80;;;;;;;11.51;86.99;93892.84;5074213;28;20202;-78
2021/05/23 08:59:25;;;;;;;7.37;0.90;;;;;;;10.74;82.03;93888.84;5074472;28;20249;-77
2021/05/23 09:01:51;;;;;;;1.83;0.90;;;;;;;10.16;86.86;93896.28;5074289;28;20668;-79
2021/05/23 09:04:19;;;;;;;3.77;1.20;;;;;;;10.06;91.39;93907.06;5074458;28;20198;-80
2021/05/23 09:06:46;;;;;;;1.20;0.80;;;;;;;9.98;90.87;93902.00;5074248;28;20710;-77
2021/05/23 09:09:15;;;;;;;4.20;0.80;;;;;;;10.18;91.23;93899.47;5074105;28;20198;-77
2021/05/23 09:11:50;;;;;;;1.57;0.97;;;;;;;10.79;91.12;93908.31;5073961;28;20236;-77
2021/05/23 09:14:30;;;;;;;2.93;0.80;;;;;;;11.78;85.74;93907.50;5074255;28;20285;-77
2021/05/23 09:16:56;;;;;;;2.30;0.90;;;;;;;12.00;79.36;93908.06;5073958;28;20692;-77
2021/05/23 09:19:24;;;;;;;3.90;0.67;;;;;;;11.20;77.44;93902.94;5073868;28;20237;-77
2021/05/23 09:21:50;;;;;;;1.27;0.80;;;;;;;11.79;80.91;93916.97;5073594;28;20281;-77
2021/05/23 09:24:16;;;;;;;4.83;0.90;;;;;;;11.84;78.08;93904.06;5073962;28;20198;-77
2021/05/23 09:26:45;;;;;;;1.60;0.73;;;;;;;11.82;76.34;93910.50;5073762;28;20194;-76
2021/05/23 09:29:15;;;;;;;1.63;0.87;;;;;;;11.34;74.50;93914.22;5073663;28;20584;-77
2021/05/23 09:31:42;;;;;;;3.90;0.80;;;;;;;11.61;77.63;93919.41;5073983;28;20553;-77
2021/05/23 09:34:09;;;;;;;1.27;0.50;;;;;;;11.38;75.82;93915.41;5073816;28;20198;-77
2021/05/23 09:36:43;;;;;;;7.17;0.90;;;;;;;11.00;76.63;93913.38;5071886;28;20199;-76
2021/05/23 09:39:10;;;;;;;2.77;0.80;;;;;;;11.35;80.52;93915.78;5079853;28;20236;-76
2021/05/23 09:41:39;;;;;;;2.43;0.70;;;;;;;11.80;77.13;93915.94;5093782;28;20660;-77
2021/05/23 09:44:15;;;;;;;1.73;0.60;;;;;;;11.54;77.52;93908.13;5093701;28;20285;-76
2021/05/23 09:46:55;;;;;;;2.63;0.80;;;;;;;12.00;73.45;93909.91;5093463;28;20664;-77
2021/05/23 09:49:22;;;;;;;1.87;0.73;;;;;;;11.69;72.60;93911.34;5093675;28;20201;-76
2021/05/23 09:51:53;;;;;;;2.80;0.90;;;;;;;11.33;78.85;93917.81;5093651;28;20194;-77
2021/05/23 09:54:20;;;;;;;0.93;0.60;;;;;;;11.43;76.41;93925.25;5093549;28;20202;-77
2021/05/23 09:56:47;;;;;;;3.20;0.60;;;;;;;11.25;71.72;93933.69;5093457;28;20206;-77
2021/05/23 09:59:21;;;;;;;2.13;0.70;;;;;;;12.08;82.32;93914.13;5093206;28;20696;-78
2021/05/23 10:01:47;;;;;;;2.07;0.77;;;;;;;12.82;67.38;93912.75;5093232;28;20208;-77
2021/05/23 10:04:20;;;;;;;2.67;0.57;;;;;;;12.35;64.04;93909.59;5093229;28;20556;-80
2021/05/23 10:06:57;;;;;;;1.30;0.67;;;;;;;11.99;67.64;93905.66;5093325;28;20364;-77
2021/05/23 10:09:25;;;;;;;1.33;0.60;;;;;;;12.50;70.39;93910.09;5093271;28;20295;-77
2021/05/23 10:11:52;;;;;;;2.37;0.93;;;;;;;11.66;65.42;93917.78;5093078;28;20198;-77
2021/05/23 10:14:18;;;;;;;2.63;0.80;;;;;;;11.62;65.69;93921.00;5093308;28;20546;-80
2021/05/23 10:16:49;;;;;;;3.37;0.70;;;;;;;11.55;67.10;93904.53;5092823;28;20254;-76
2021/05/23 10:19:15;;;;;;;1.30;0.70;;;;;;;12.16;69.41;93927.78;5093087;28;20222;-79
2021/05/23 10:21:46;;;;;;;1.83;0.73;;;;;;;12.31;70.22;93924.13;5092712;28;20672;-77
2021/05/23 10:24:12;;;;;;;1.70;0.73;;;;;;;12.54;67.79;93918.34;5092912;28;20266;-76
2021/05/23 10:26:39;;;;;;;0.83;0.60;;;;;;;12.47;65.99;93922.81;5093154;28;20281;-80
2021/05/23 10:29:07;;;;;;;1.73;0.50;;;;;;;12.70;65.41;93917.88;5093194;28;20202;-77
2021/05/23 10:31:35;;;;;;;3.60;0.70;;;;;;;13.22;65.44;93916.94;5093470;28;20198;-77
2021/05/23 10:34:01;;;;;;;1.30;0.60;;;;;;;13.33;61.20;93929.41;5092772;28;20198;-79
2021/05/23 10:36:29;;;;;;;1.63;0.77;;;;;;;12.78;63.55;93927.31;5092934;28;20205;-78
2021/05/23 10:38:56;;;;;;;3.20;0.73;;;;;;;12.21;64.79;93935.00;5092493;28;20234;-78
2021/05/23 10:41:22;;;;;;;3.60;0.93;;;;;;;12.34;67.01;93934.97;5092948;28;20209;-78
2021/05/23 10:43:56;;;;;;;1.53;0.63;;;;;;;12.32;63.11;93936.16;5092980;28;20649;-77
2021/05/23 10:46:23;;;;;;;4.07;0.77;;;;;;;13.16;63.87;93923.84;5092909;28;20263;-77
2021/05/23 10:48:54;;;;;;;0.70;0.70;;;;;;;13.14;60.69;93931.94;5096965;28;20326;-78
2021/05/23 10:51:20;;;;;;;3.13;0.60;;;;;;;12.83;59.52;93934.53;5096652;28;20649;-78
2021/05/23 10:53:46;;;;;;;0.80;0.50;;;;;;;12.55;61.71;93928.63;5096882;28;20338;-77
2021/05/23 10:56:22;;;;;;;1.67;0.60;;;;;;;12.72;64.76;93930.75;5097168;28;20369;-78
2021/05/23 10:58:55;;;;;;;0.57;0.57;;;;;;;12.99;61.34;93930.59;5096983;28;20225;-77
2021/05/23 11:01:37;;;;;;;2.83;0.60;;;;;;;13.12;56.36;93927.91;5096363;28;20201;-77
2021/05/23 11:04:08;;;;;;;1.40;0.60;;;;;;;13.52;61.40;93914.50;5076280;28;20195;-76
2021/05/23 11:06:34;;;;;;;0.70;0.60;;;;;;;13.83;61.59;93920.72;5076528;28;20675;-78
2021/05/23 11:09:06;;;;;;;0.80;0.50;;;;;;;14.51;54.75;93921.59;5076084;28;20460;-77
2021/05/23 11:11:32;;;;;;;2.23;0.70;;;;;;;13.47;56.41;93928.28;5076354;28;20568;-78
2021/05/23 11:14:12;;;;;;;4.57;0.77;;;;;;;12.76;58.71;93924.09;5076324;28;20632;-77
2021/05/23 11:16:46;;;;;;;3.87;0.73;;;;;;;12.57;60.73;93944.94;5076292;28;20217;-77
2021/05/23 11:19:12;;;;;;;1.90;0.63;;;;;;;12.23;61.29;93940.03;5075889;28;20477;-79
2021/05/23 11:21:40;;;;;;;1.17;0.70;;;;;;;12.87;61.31;93926.06;5076167;28;20202;-78
2021/05/23 11:24:08;;;;;;;4.23;0.73;;;;;;;13.33;55.07;93922.34;5075897;28;20231;-77
2021/05/23 11:26:35;;;;;;;0.97;0.63;;;;;;;14.16;60.60;93930.09;5075885;28;20726;-79
2021/05/23 11:29:02;;;;;;;1.70;0.70;;;;;;;13.40;55.20;93931.97;5075869;28;20206;-78
2021/05/23 11:31:30;;;;;;;2.50;0.60;;;;;;;13.18;54.20;93936.75;5076117;28;20260;-78
2021/05/23 11:33:57;;;;;;;1.20;0.53;;;;;;;12.76;58.46;93937.19;5076061;28;20207;-77
2021/05/23 11:36:26;;;;;;;3.90;0.97;;;;;;;12.90;57.54;93930.06;5075701;28;20203;-80